sim
Sign-in with your pilot id or email,
or register
Callsign
Passwort

Schedule Details

Flight Number: OEO3130
Departure: Munich Airport (EDDM) at 04:55
Arrival: Edinburgh Airport (EGPH) at 07:20

Weather Information
Getting current METAR information for EDDM 221550Z VRB02KT 9999 FEW040CB 23/14 Q1010 NOSIG
Getting current METAR information for EGPH 221550Z 22019KT 9999 BKN026 15/10 Q0998

Schedule Frequency

Route Map